createdAt,value
2023-05-17T00:02:30.403Z,101329.66
2023-05-17T00:07:32.125Z,101331.44
2023-05-17T00:12:35.242Z,101326.13
2023-05-17T00:17:38.039Z,101325.25
2023-05-17T00:22:40.934Z,101320.88
2023-05-17T00:27:44.077Z,101324.34
2023-05-17T00:32:47.596Z,101328.66
2023-05-17T00:37:49.383Z,101322.59
2023-05-17T00:42:52.504Z,101333.06
2023-05-17T00:47:54.321Z,101322.56
2023-05-17T00:52:56.291Z,101333.03
2023-05-17T00:57:59.521Z,101340.88
2023-05-17T01:03:01.295Z,101343.38
2023-05-17T01:08:03.537Z,101346.13
2023-05-17T01:13:10.135Z,101339.97
2023-05-17T01:18:17.944Z,101344.38
2023-05-17T01:23:28.519Z,101352.25
2023-05-17T01:28:31.843Z,101343.50
2023-05-17T01:33:33.764Z,101352.22
2023-05-17T01:38:35.990Z,101356.63
2023-05-17T01:43:41.769Z,101361.00
2023-05-17T01:48:45.889Z,101368.81
2023-05-17T01:53:48.679Z,101367.06
2023-05-17T01:58:51.711Z,101373.03
2023-05-17T02:03:53.470Z,101371.28
2023-05-17T02:08:55.422Z,101374.63
2023-05-17T02:13:59.236Z,101370.41
2023-05-17T02:19:01.297Z,101372.28
2023-05-17T02:24:03.592Z,101366.19
2023-05-17T02:29:06.695Z,101378.50
2023-05-17T02:34:08.447Z,101389.00
2023-05-17T02:39:10.326Z,101394.25
2023-05-17T02:44:14.508Z,101389.88
2023-05-17T02:49:16.308Z,101398.53
2023-05-17T02:54:18.092Z,101395.13
2023-05-17T02:59:21.213Z,101410.66
2023-05-17T03:04:23.222Z,101408.88
2023-05-17T03:09:25.423Z,101411.44
2023-05-17T03:14:28.945Z,101421.16
2023-05-17T03:19:30.747Z,101421.75
2023-05-17T03:24:32.693Z,101419.25
2023-05-17T03:29:36.944Z,101428.84
2023-05-17T03:34:38.936Z,101437.41
2023-05-17T03:39:40.960Z,101444.56
2023-05-17T03:44:44.298Z,101449.03
2023-05-17T03:49:46.760Z,101454.31
2023-05-17T03:54:49.289Z,101460.69
2023-05-17T03:59:54.098Z,101466.81
2023-05-17T04:04:56.961Z,101462.47
2023-05-17T04:09:59.521Z,101478.31
2023-05-17T04:15:06.766Z,101474.72
2023-05-17T04:20:11.646Z,101489.56
2023-05-17T04:25:13.472Z,101494.66
2023-05-17T04:30:17.011Z,101496.28
2023-05-17T04:35:19.919Z,101503.44
2023-05-17T04:40:25.159Z,101511.38
2023-05-17T04:45:28.435Z,101518.31
2023-05-17T04:50:30.577Z,101517.63
2023-05-17T04:55:32.404Z,101526.28
2023-05-17T05:00:36.214Z,101541.22
2023-05-17T05:05:39.666Z,101550.84
2023-05-17T05:10:41.611Z,101553.53
2023-05-17T05:15:45.814Z,101557.81
2023-05-17T05:20:48.019Z,101560.50
2023-05-17T05:25:49.922Z,101569.44
2023-05-17T05:30:58.838Z,101575.47
2023-05-17T05:36:01.449Z,101578.34
2023-05-17T05:41:03.322Z,101580.28
2023-05-17T05:46:07.968Z,101587.34
2023-05-17T05:51:10.803Z,101591.81
2023-05-17T05:56:15.645Z,101589.19
2023-05-17T06:01:18.935Z,101589.22
2023-05-17T06:06:20.767Z,101603.28
2023-05-17T06:11:24.048Z,101611.16
2023-05-17T06:16:29.191Z,101620.81
2023-05-17T06:21:31.264Z,101626.09
2023-05-17T06:26:32.967Z,101620.88
2023-05-17T06:31:36.038Z,101624.31
2023-05-17T06:36:38.677Z,101633.09
2023-05-17T06:41:40.760Z,101645.41
2023-05-17T06:46:43.781Z,101653.31
2023-05-17T06:51:45.802Z,101669.09
2023-05-17T06:56:47.487Z,101676.13
2023-05-17T07:01:50.511Z,101677.03
2023-05-17T07:06:52.218Z,101692.81
2023-05-17T07:11:53.910Z,101688.44
2023-05-17T07:16:56.968Z,101691.94
2023-05-17T07:21:58.876Z,101703.31
2023-05-17T07:27:00.619Z,101705.88
2023-05-17T07:32:04.191Z,101722.50
2023-05-17T07:37:05.924Z,101724.19
2023-05-17T07:42:07.852Z,101725.16
2023-05-17T07:47:10.926Z,101732.25
2023-05-17T07:52:12.840Z,101735.78
2023-05-17T07:57:14.575Z,101746.31
2023-05-17T08:02:17.625Z,101754.19
2023-05-17T08:07:19.334Z,101750.47
2023-05-17T08:12:21.074Z,101756.66
2023-05-17T08:17:24.277Z,101751.91
2023-05-17T08:22:26.466Z,101751.00
2023-05-17T08:27:30.916Z,101746.56
2023-05-17T08:32:34.007Z,101759.22
2023-05-17T08:37:35.727Z,101744.75
2023-05-17T08:42:37.454Z,101762.31
2023-05-17T08:47:40.555Z,101762.16
2023-05-17T08:52:44.970Z,101761.66
2023-05-17T08:57:47.076Z,101734.53
2023-05-17T09:02:50.147Z,101762.84
2023-05-17T09:07:52.864Z,101761.09
2023-05-17T09:12:54.613Z,101756.44
2023-05-17T09:17:58.353Z,101767.16
2023-05-17T09:23:00.868Z,101775.03
2023-05-17T09:28:02.902Z,101772.00
2023-05-17T09:33:09.583Z,101770.22
2023-05-17T09:38:11.990Z,101768.84
2023-05-17T09:43:14.113Z,101768.41
2023-05-17T09:48:17.993Z,101771.63
2023-05-17T09:53:24.699Z,101758.16
2023-05-17T09:58:26.746Z,101768.56
2023-05-17T10:03:31.011Z,101762.53
2023-05-17T10:08:33.411Z,101761.72
2023-05-17T10:13:37.349Z,101758.81
2023-05-17T10:18:40.731Z,101756.84
2023-05-17T10:23:44.090Z,101757.47
2023-05-17T10:28:46.422Z,101763.00
2023-05-17T10:33:50.798Z,101752.16
2023-05-17T10:38:52.523Z,101774.28
2023-05-17T10:43:54.542Z,101759.78
2023-05-17T10:48:58.701Z,101756.50
2023-05-17T10:54:04.002Z,101764.59
2023-05-17T10:59:19.613Z,101761.84
2023-05-17T11:04:24.160Z,101761.59
2023-05-17T11:09:26.156Z,101752.84
2023-05-17T11:14:27.865Z,101759.22
2023-05-17T11:19:31.892Z,101757.13
2023-05-17T11:24:33.590Z,101745.69
2023-05-17T11:29:35.594Z,101748.16
2023-05-17T11:34:39.623Z,101749.69
2023-05-17T11:40:03.139Z,101762.09
2023-05-17T11:45:05.682Z,101766.22
2023-05-17T11:50:09.603Z,101769.97
2023-05-17T11:55:13.948Z,101767.94
2023-05-17T12:00:17.492Z,101771.25
2023-05-17T12:05:22.056Z,101770.69
2023-05-17T12:10:23.736Z,101775.41
2023-05-17T12:15:25.784Z,101775.03
2023-05-17T12:20:30.066Z,101777.34
2023-05-17T12:25:32.039Z,101785.56
2023-05-17T12:30:33.798Z,101782.16
2023-05-17T12:35:36.796Z,101791.25
2023-05-17T12:40:40.276Z,101788.91
2023-05-17T12:45:43.259Z,101795.78
2023-05-17T12:50:48.954Z,101798.69
2023-05-17T12:55:50.723Z,101795.00
2023-05-17T13:00:59.732Z,101797.44
2023-05-17T13:06:04.113Z,101789.25
2023-05-17T13:11:07.158Z,101808.00
2023-05-17T13:16:08.906Z,101797.25
2023-05-17T13:21:11.919Z,101787.78
2023-05-17T13:26:13.630Z,101785.34
2023-05-17T13:31:15.673Z,101793.34
2023-05-17T13:36:18.707Z,101781.00
2023-05-17T13:41:20.388Z,101789.19
2023-05-17T13:46:22.095Z,101772.88
2023-05-17T13:51:28.118Z,101774.06
2023-05-17T13:56:29.830Z,101772.41
2023-05-17T14:01:31.573Z,101767.34
2023-05-17T14:06:34.639Z,101766.81
2023-05-17T14:11:36.347Z,101771.03
2023-05-17T14:16:38.878Z,101769.63
2023-05-17T14:21:41.945Z,101763.22
2023-05-17T14:26:44.138Z,101760.94
2023-05-17T14:31:46.296Z,101757.00
2023-05-17T14:36:49.321Z,101767.34
2023-05-17T14:41:51.069Z,101768.16
2023-05-17T14:46:52.785Z,101782.72
2023-05-17T14:51:56.171Z,101779.25
2023-05-17T14:56:58.446Z,101787.97
2023-05-17T15:02:00.349Z,101783.00
2023-05-17T15:07:03.596Z,101787.47
2023-05-17T15:12:06.480Z,101797.81
2023-05-17T15:17:08.536Z,101799.00
2023-05-17T15:22:11.546Z,101795.91
2023-05-17T15:27:16.196Z,101804.06
2023-05-17T15:32:17.952Z,101811.56
2023-05-17T15:37:21.458Z,101810.38
2023-05-17T15:42:23.196Z,101811.66
2023-05-17T15:47:38.687Z,101823.44
2023-05-17T15:52:47.248Z,101820.31
2023-05-17T15:57:48.952Z,101833.06
2023-05-17T16:02:50.700Z,101839.38
2023-05-17T16:07:53.818Z,101836.47
2023-05-17T16:12:55.561Z,101840.53
2023-05-17T16:17:57.324Z,101850.44
2023-05-17T16:23:00.435Z,101857.69
2023-05-17T16:28:02.111Z,101852.50
2023-05-17T16:33:04.973Z,101860.31
2023-05-17T16:38:09.165Z,101858.25
2023-05-17T16:43:15.712Z,101854.16
2023-05-17T16:48:17.479Z,101868.50
2023-05-17T16:53:20.780Z,101870.97
2023-05-17T16:58:22.496Z,101868.22
2023-05-17T17:03:24.286Z,101872.63
2023-05-17T17:08:27.404Z,101876.28
2023-05-17T17:13:29.154Z,101881.31
2023-05-17T17:18:30.931Z,101890.91
2023-05-17T17:23:33.927Z,101893.00
2023-05-17T17:28:35.678Z,101891.22
2023-05-17T17:33:37.400Z,101891.13
2023-05-17T17:38:40.513Z,101901.13
2023-05-17T17:43:43.085Z,101898.66
2023-05-17T17:48:44.855Z,101905.81
2023-05-17T17:53:48.796Z,101903.41
2023-05-17T17:58:53.563Z,101905.09
2023-05-17T18:03:55.273Z,101914.72
2023-05-17T18:08:58.298Z,101923.59
2023-05-17T18:14:02.273Z,101916.75
2023-05-17T18:19:04.101Z,101927.34
2023-05-17T18:24:08.173Z,101937.06
2023-05-17T18:29:09.918Z,101941.47
2023-05-17T18:34:11.626Z,101938.81
2023-05-17T18:39:14.694Z,101947.63
2023-05-17T18:44:17.986Z,101946.75
2023-05-17T18:49:21.361Z,101947.63
2023-05-17T18:54:24.438Z,101934.44
2023-05-17T18:59:26.114Z,101947.63
2023-05-17T19:04:30.504Z,101954.66
2023-05-17T19:09:35.012Z,101954.63
2023-05-17T19:14:38.320Z,101959.00
2023-05-17T19:19:40.097Z,101963.38
2023-05-17T19:24:43.313Z,101975.63
2023-05-17T19:29:45.212Z,101987.84
2023-05-17T19:34:46.982Z,101991.34
2023-05-17T19:39:50.050Z,101992.19
2023-05-17T19:44:51.788Z,101999.22
2023-05-17T19:49:53.521Z,102002.66
2023-05-17T19:54:56.623Z,102004.38
2023-05-17T19:59:58.411Z,102012.25
2023-05-17T20:05:02.177Z,102010.50
2023-05-17T20:10:06.501Z,102020.88
2023-05-17T20:15:09.430Z,102017.34
2023-05-17T20:20:11.614Z,102026.00
2023-05-17T20:25:14.650Z,102027.66
2023-05-17T20:30:16.434Z,102033.75
2023-05-17T20:35:18.251Z,102038.13
2023-05-17T20:40:21.373Z,102033.75
2023-05-17T20:45:23.266Z,102042.34
2023-05-17T20:50:25.098Z,102045.09
2023-05-17T20:55:28.243Z,102051.16
2023-05-17T21:00:30.234Z,102058.94
2023-05-17T21:05:35.984Z,102058.09
2023-05-17T21:10:40.597Z,102062.38
2023-05-17T21:15:42.346Z,102071.06
2023-05-17T21:20:44.164Z,102077.94
2023-05-17T21:25:48.906Z,102077.75
2023-05-17T21:30:51.625Z,102078.53
2023-05-17T21:35:53.336Z,102080.72
2023-05-17T21:40:56.478Z,102083.38
2023-05-17T21:45:58.229Z,102087.66
2023-05-17T21:51:00.015Z,102085.94
2023-05-17T21:56:03.481Z,102097.72
2023-05-17T22:01:05.458Z,102092.56
2023-05-17T22:06:07.533Z,102092.56
2023-05-17T22:11:11.005Z,102101.75
2023-05-17T22:16:13.843Z,102090.91
2023-05-17T22:21:15.670Z,102102.19
2023-05-17T22:26:19.861Z,102105.19
2023-05-17T22:31:22.723Z,102102.06
2023-05-17T22:36:26.652Z,102099.94
2023-05-17T22:41:29.805Z,102095.25
2023-05-17T22:46:31.909Z,102096.59
2023-05-17T22:51:35.338Z,102103.72
2023-05-17T22:56:38.462Z,102105.25
2023-05-17T23:01:40.315Z,102103.22
2023-05-17T23:06:42.357Z,102101.41
2023-05-17T23:11:45.436Z,102103.34
2023-05-17T23:16:47.183Z,102097.72
2023-05-17T23:21:49.003Z,102097.72
2023-05-17T23:26:52.119Z,102099.84
2023-05-17T23:31:53.975Z,102100.66
2023-05-17T23:36:55.801Z,102100.47
2023-05-17T23:41:59.110Z,102096.94
2023-05-17T23:47:00.832Z,102094.06
2023-05-17T23:52:03.020Z,102104.81
2023-05-17T23:57:06.710Z,102093.47
